TTB YMNG-YSCB

Flight info

Callsign TTB
Flight time N/A
Altitude 9000
Route YMNG MNG AY CB YSCB
Aircraft PA24/L-SDF/C

Departure

Time 2026-04-17 07:32
Airport Mangalore Airport (YMNG)

Arrival

Time N/A
Airport Canberra Airport (YSCB)
Time Latitude Longitude Altitude Speed Heading
2026-04-17 07:20 -36.88972 145.18501 466 ft 0 kts 11°
2026-04-17 07:25 -36.88964 145.18498 463 ft 3 kts 314°
2026-04-17 07:25 -36.88962 145.18473 466 ft 5 kts 264°
2026-04-17 07:26 -36.88954 145.18428 465 ft 6 kts 318°
2026-04-17 07:26 -36.88917 145.18391 465 ft 8 kts 324°
2026-04-17 07:26 -36.88866 145.18346 464 ft 11 kts 323°
2026-04-17 07:26 -36.88849 145.18330 464 ft 3 kts 324°
2026-04-17 07:27 -36.88825 145.18308 464 ft 5 kts 324°
2026-04-17 07:27 -36.88783 145.18289 463 ft 7 kts
2026-04-17 07:27 -36.88738 145.18334 463 ft 10 kts 52°
2026-04-17 07:27 -36.88693 145.18409 463 ft 12 kts 53°
2026-04-17 07:28 -36.88646 145.18491 463 ft 11 kts 54°
2026-04-17 07:28 -36.88599 145.18572 464 ft 12 kts 55°
2026-04-17 07:28 -36.88555 145.18651 464 ft 11 kts 54°
2026-04-17 07:28 -36.88511 145.18723 465 ft 10 kts 53°
2026-04-17 07:29 -36.88470 145.18791 466 ft 10 kts 53°
2026-04-17 07:29 -36.88427 145.18862 467 ft 11 kts 52°
2026-04-17 07:29 -36.88376 145.18945 467 ft 12 kts 52°
2026-04-17 07:29 -36.88367 145.18960 467 ft 2 kts 51°
2026-04-17 07:30 -36.88383 145.18978 467 ft 0 kts 191°
2026-04-17 07:30 -36.88397 145.18975 467 ft 16 kts 188°
2026-04-17 07:31 -36.88704 145.18921 505 ft 59 kts 181°
2026-04-17 07:31 -36.89116 145.18823 632 ft 63 kts 191°
2026-04-17 07:31 -36.89587 145.18710 794 ft 70 kts 186°
2026-04-17 07:31 -36.90025 145.18746 1061 ft 66 kts 137°
2026-04-17 07:32 -36.90111 145.19351 1198 ft 84 kts 72°
2026-04-17 07:32 -36.89613 145.19816 1345 ft 98 kts 28°
2026-04-17 07:32 -36.88943 145.20138 1539 ft 111 kts 21°
2026-04-17 07:32 -36.88191 145.20435 1780 ft 115 kts 14°
2026-04-17 07:33 -36.87510 145.20900 2058 ft 109 kts 50°
2026-04-17 07:33 -36.87131 145.21682 2314 ft 103 kts 75°
2026-04-17 07:33 -36.86843 145.22519 2502 ft 108 kts 79°
2026-04-17 07:33 -36.86563 145.23400 2673 ft 112 kts 66°
2026-04-17 07:34 -36.86135 145.24202 2943 ft 112 kts 69°
2026-04-17 07:34 -36.85802 145.25089 3154 ft 112 kts 74°
2026-04-17 07:34 -36.85426 145.25940 3390 ft 112 kts 65°
2026-04-17 07:34 -36.85068 145.26800 3635 ft 112 kts 80°
2026-04-17 07:35 -36.84649 145.27610 3839 ft 115 kts 60°
2026-04-17 07:35 -36.84161 145.28410 4077 ft 114 kts 60°
2026-04-17 07:35 -36.83685 145.29220 4295 ft 117 kts 61°
2026-04-17 07:35 -36.83217 145.30037 4508 ft 118 kts 62°
2026-04-17 07:36 -36.82792 145.30891 4797 ft 115 kts 67°
2026-04-17 07:36 -36.82383 145.31766 5018 ft 117 kts 68°
2026-04-17 07:36 -36.81982 145.32644 5269 ft 116 kts 67°
2026-04-17 07:36 -36.81574 145.33516 5477 ft 118 kts 68°
2026-04-17 07:37 -36.81203 145.34418 5718 ft 116 kts 72°
2026-04-17 07:37 -36.80850 145.35336 5928 ft 117 kts 72°
2026-04-17 07:37 -36.80492 145.36249 6170 ft 117 kts 71°
2026-04-17 07:37 -36.80129 145.37171 6393 ft 121 kts 71°
2026-04-17 07:38 -36.79755 145.38125 6575 ft 124 kts 71°
2026-04-17 07:38 -36.79386 145.39106 6770 ft 126 kts 72°
2026-04-17 07:38 -36.79009 145.40108 6965 ft 127 kts 72°
2026-04-17 07:38 -36.78626 145.41108 7163 ft 128 kts 72°
2026-04-17 07:39 -36.78239 145.42110 7339 ft 130 kts 72°
2026-04-17 07:39 -36.77852 145.43120 7558 ft 129 kts 72°
2026-04-17 07:39 -36.77386 145.44101 7707 ft 134 kts 62°
2026-04-17 07:39 -36.76850 145.45047 7945 ft 132 kts 61°
2026-04-17 07:40 -36.76306 145.45990 8107 ft 135 kts 60°
2026-04-17 07:40 -36.75761 145.46931 8320 ft 135 kts 60°
2026-04-17 07:40 -36.75203 145.47878 8496 ft 137 kts 60°
2026-04-17 07:40 -36.74645 145.48828 8691 ft 136 kts 61°
2026-04-17 07:41 -36.74084 145.49780 8870 ft 138 kts 61°
2026-04-17 07:41 -36.73505 145.50771 8995 ft 142 kts 61°
2026-04-17 07:41 -36.72905 145.51807 9030 ft 152 kts 61°
2026-04-17 07:41 -36.72272 145.52911 9026 ft 161 kts 61°
2026-04-17 07:42 -36.71615 145.54072 9021 ft 167 kts 61°
2026-04-17 07:42 -36.71161 145.54876 9023 ft 168 kts 61°
2026-04-17 07:42 -36.70255 145.56471 9027 ft 171 kts 60°
2026-04-17 07:43 -36.68871 145.58911 9023 ft 173 kts 60°
2026-04-17 07:43 -36.68170 145.60143 9023 ft 173 kts 60°
2026-04-17 07:43 -36.67706 145.60959 9017 ft 174 kts 60°
2026-04-17 07:43 -36.66781 145.62597 9018 ft 174 kts 60°
2026-04-17 07:44 -36.66078 145.63830 9018 ft 174 kts 60°
2026-04-17 07:44 -36.65389 145.65056 9021 ft 174 kts 62°
2026-04-17 07:44 -36.64724 145.66317 9020 ft 174 kts 63°
2026-04-17 07:44 -36.64079 145.67596 9019 ft 174 kts 65°
2026-04-17 07:45 -36.63464 145.68866 9017 ft 173 kts 66°
2026-04-17 07:45 -36.62864 145.70156 9019 ft 173 kts 67°
2026-04-17 07:45 -36.62271 145.71474 9016 ft 173 kts 68°
2026-04-17 07:45 -36.61694 145.72789 9016 ft 172 kts 68°
2026-04-17 07:46 -36.61124 145.74111 9014 ft 173 kts 69°
2026-04-17 07:46 -36.60561 145.75431 9014 ft 172 kts 69°
2026-04-17 07:46 -36.60005 145.76727 9015 ft 172 kts 69°
2026-04-17 07:46 -36.59445 145.78049 9015 ft 172 kts 69°
2026-04-17 07:47 -36.58885 145.79375 9016 ft 172 kts 69°
2026-04-17 07:47 -36.58327 145.80698 9011 ft 172 kts 69°
2026-04-17 07:47 -36.57774 145.82015 9012 ft 172 kts 69°
2026-04-17 07:47 -36.57217 145.83333 9011 ft 172 kts 69°
2026-04-17 07:48 -36.56657 145.84650 9012 ft 172 kts 69°
2026-04-17 07:48 -36.56100 145.85952 9013 ft 172 kts 69°
2026-04-17 07:48 -36.55726 145.86826 9013 ft 172 kts 69°
2026-04-17 07:48 -36.55535 145.87268 9011 ft 172 kts 69°
2026-04-17 07:49 -36.55344 145.87710 9011 ft 172 kts 69°